Au Sable Forks, New York
Current Conditions -  °F | °C
As of 10:53 AM on Thursday 27 Nov 2014 (Local Time) from KPBG Reporting Station
Overcast Overcast  
Wind Chill: 21°   Ceiling: 4100
Heat Index: 29°   Visibility: 8mi
Dew Point: 23°   Wind: 8mph
Humidity: 78%   Direction: 350°N
Pressure: 30.04"   Gusts: NA
Location:  44.44°N, 73.67°W
Report Text: KPBG 271553Z AUTO 35007KT 8SM OVC041 M02/M05 A3004 RMK AO2 SLP175 T10171050
Loading
Personal Weather Stations






























Interactive Weather Map New forecast layout! Learn more

10-Day Weather Forecast

Advertisements
Track Severe Weather on mobile